Latest Weather Observations for Smithton

IDT60801

Issued at 10:21 pm EST Thursday 24 September 2020 (issued every 10 minutes, with the page automatically refreshed every 10 minutes)

About weather observations | Map of weather stations | Latest weather observations for TAS | Other Formats
Station Details ID: 091292 Name: SMITHTON AERODROME Lat: -40.83 Lon: 145.08 Height: 7.5 m
Data from the previous 72 hours. | See also: Recent months at Smithton
Date/Time
EST
Temp
°C
App
Temp
°C
Dew
Point
°C
Rel
Hum
%
Delta-T
°C
Wind Press
QNH
hPa
Press
MSL
hPa
Rain since
9am
mm
Dir  Spd
km/h
Gust
km/h
Spd
kts
Gust
kts
24/10:00pm 8.3 4.9 5.8 84 1.1 NE 13 17 7 9 1005.6 1005.6 0.2
24/09:30pm 8.2 4.6 5.1 81 1.4 NNE 13 19 7 10 1006.1 1006.1 0.2
24/09:00pm 9.0 4.4 6.4 84 1.2 N 20 28 11 15 1006.6 1006.6 0.2
24/08:30pm 8.8 4.8 6.8 87 0.9 N 17 24 9 13 1006.8 1006.8 0.2
24/08:00pm 8.0 5.4 6.3 89 0.8 N 9 11 5 6 1006.9 1006.9 0.2
24/07:30pm 7.9 5.1 6.8 93 0.5 N 11 15 6 8 1006.7 1006.7 0.2
24/07:00pm 7.5 4.9 6.1 91 0.6 N 9 11 5 6 1006.5 1006.5 0.2
24/06:30pm 8.6 4.9 6.2 85 1.1 N 15 19 8 10 1006.6 1006.6 0.0
24/06:00pm 8.9 6.1 6.9 87 0.9 N 11 15 6 8 1006.7 1006.7 0.0
24/05:30pm 9.1 4.5 6.7 85 1.1 NNW 20 24 11 13 1006.7 1006.7 0.0
24/05:00pm 10.9 6.8 6.1 72 2.2 NW 17 26 9 14 1006.5 1006.5 0.0
24/04:30pm 11.8 8.4 6.1 68 2.7 NW 13 17 7 9 1006.4 1006.4 0.0
24/04:00pm 12.1 7.5 5.5 64 3.1 NW 19 24 10 13 1006.5 1006.5 0.0
24/03:30pm 12.0 7.5 5.9 66 2.9 WNW 19 26 10 14 1006.7 1006.7 0.0
24/03:00pm 11.8 7.1 5.9 67 2.8 W 20 26 11 14 1006.9 1006.9 0.0
24/02:30pm 12.2 7.6 6.5 68 2.7 NW 20 26 11 14 1007.1 1007.1 0.0
24/02:00pm 12.1 7.5 5.7 65 3.0 NW 19 28 10 15 1007.2 1007.2 0.0
24/01:30pm 12.0 7.4 5.4 64 3.1 WNW 19 24 10 13 1007.5 1007.5 0.0
24/01:00pm 12.3 7.5 5.7 64 3.1 WNW 20 26 11 14 1007.9 1007.9 0.0
24/12:30pm 12.0 5.5 4.7 61 3.3 WNW 28 41 15 22 1008.1 1008.1 0.0
24/12:00pm 12.7 7.9 5.8 63 3.2 W 20 28 11 15 1008.3 1008.3 0.0
24/11:30am 11.8 6.3 3.8 58 3.6 WSW 22 28 12 15 1008.6 1008.6 0.0
24/11:00am 11.8 6.3 4.1 59 3.5 WSW 22 32 12 17 1008.8 1008.8 0.0
24/10:30am 11.6 6.7 5.0 64 3.0 WSW 20 30 11 16 1009.1 1009.1 0.0
24/10:00am 10.9 5.2 4.8 66 2.8 W 24 32 13 17 1009.4 1009.4 0.0
24/09:30am 10.2 6.4 5.8 74 2.0 WSW 15 20 8 11 1009.5 1009.5 0.0
24/09:00am 9.9 6.7 6.8 81 1.5 SW 13 20 7 11 1009.4 1009.4 1.8
24/08:30am 9.7 6.1 6.8 82 1.4 SW 15 20 8 11 1009.4 1009.4 1.6
24/08:00am 8.8 5.5 6.4 85 1.1 WSW 13 19 7 10 1009.4 1009.4 1.6
24/07:30am 7.7 5.2 6.6 93 0.5 W 9 13 5 7 1009.2 1009.2 1.6
24/07:00am 7.0 4.0 6.1 94 0.4 WSW 11 15 6 8 1009.1 1009.1 1.6
24/06:30am 7.1 3.8 6.2 94 0.4 WSW 13 17 7 9 1008.9 1008.9 1.6
24/06:00am 7.1 3.0 6.0 93 0.5 W 17 24 9 13 1008.9 1008.9 1.6
24/05:30am 7.1 1.9 5.7 91 0.6 WSW 22 28 12 15 1008.7 1008.7 1.6
24/05:00am 7.0 2.2 5.8 92 0.5 SW 20 32 11 17 1008.7 1008.7 1.6
24/04:30am 6.7 2.8 5.3 91 0.6 WSW 15 19 8 10 1008.7 1008.7 1.4
24/04:00am 6.1 2.2 5.4 95 0.3 WSW 15 17 8 9 1008.9 1008.9 1.4
24/03:30am 6.5 3.5 6.1 97 0.2 W 11 17 6 9 1008.8 1008.8 1.4
24/03:00am 5.1 1.8 4.4 95 0.3 WSW 11 13 6 7 1008.9 1008.9 1.4
24/02:30am 6.2 2.7 5.5 95 0.3 SW 13 15 7 8 1009.1 1009.1 1.4
24/02:00am 6.3 2.8 5.6 95 0.3 WSW 13 15 7 8 1009.2 1009.2 1.4
24/01:30am 7.3 3.7 6.7 96 0.3 WSW 15 20 8 11 1009.6 1009.6 1.4
24/01:00am 6.1 3.0 5.4 95 0.3 WSW 11 15 6 8 1009.7 1009.7 1.4
24/12:30am 6.6 2.8 5.7 94 0.4 WSW 15 17 8 9 1009.8 1009.8 1.4
24/12:00am 7.3 3.7 6.6 95 0.3 WSW 15 20 8 11 1009.9 1009.9 1.4
 
Date/Time
EST
Temp
°C
App
Temp
°C
Dew
Point
°C
Rel
Hum
%
Delta-T
°C
Wind Press
QNH
hPa
Press
MSL
hPa
Rain since
9am
mm
Dir  Spd
km/h
Gust
km/h
Spd
kts
Gust
kts
23/11:30pm 8.2 3.8 7.4 95 0.4 WSW 20 26 11 14 1010.0 1010.0 1.4
23/11:00pm 8.1 4.7 7.5 96 0.3 WSW 15 17 8 9 1010.0 1010.0 1.2
23/10:30pm 7.3 4.4 6.7 96 0.3 SW 11 13 6 7 1009.9 1009.9 1.2
23/10:00pm 7.8 5.4 7.1 95 0.3 SW 9 11 5 6 1009.9 1009.9 1.2
23/09:30pm 8.7 5.7 7.9 95 0.4 SW 13 17 7 9 1010.0 1010.0 1.2
23/09:00pm 9.0 6.5 8.2 95 0.4 SW 11 15 6 8 1009.8 1009.8 1.2
23/08:30pm 8.9 5.6 8.0 94 0.4 WSW 15 19 8 10 1009.7 1009.7 1.0
23/08:00pm 9.3 5.1 8.2 93 0.5 WSW 20 24 11 13 1009.3 1009.3 1.0
23/07:30pm 9.2 5.5 8.1 93 0.5 WSW 17 20 9 11 1009.0 1009.0 1.0
23/07:00pm 9.5 5.4 7.9 90 0.8 WSW 19 24 10 13 1008.6 1008.6 1.0
23/06:30pm 9.8 5.8 8.1 89 0.8 SW 19 22 10 12 1008.2 1008.2 1.0
23/06:00pm 10.2 5.9 8.0 86 1.1 WSW 20 30 11 16 1007.9 1007.9 1.0
23/05:30pm 11.3 6.4 8.3 82 1.5 SW 24 30 13 16 1007.5 1007.5 1.0
23/05:00pm 11.9 6.1 8.0 77 1.9 SW 28 35 15 19 1007.1 1007.1 1.0
23/04:30pm 12.3 6.6 8.2 76 2.0 SW 28 37 15 20 1006.9 1006.9 1.0
23/04:00pm 11.7 5.7 8.6 81 1.5 SW 30 41 16 22 1006.6 1006.6 1.0
23/03:30pm 13.1 7.7 9.5 79 1.8 SW 28 37 15 20 1006.3 1006.3 1.0
23/03:00pm 14.1 8.8 8.5 69 2.8 SW 26 35 14 19 1006.1 1006.1 1.0
23/02:30pm 14.0 7.7 8.8 71 2.6 WSW 32 44 17 24 1006.0 1006.0 1.0
23/02:19pm 13.5 8.0 9.0 74 2.3 SW 28 46 15 25 1006.0 1006.0 1.0
23/02:00pm 14.2 7.6 8.6 69 2.8 WSW 33 50 18 27 1005.9 1005.9 1.0
23/01:30pm 12.8 5.4 8.3 74 2.2 WSW 37 46 20 25 1005.9 1005.9 1.0
23/01:00pm 13.4 7.1 9.8 79 1.9 SW 33 44 18 24 1005.9 1005.9 1.0
23/12:30pm 14.2 7.5 9.8 75 2.3 SW 35 54 19 29 1005.8 1005.8 1.0
23/12:29pm 14.2 7.6 10.0 76 2.2 SW 35 54 19 29 1005.8 1005.8 1.0
23/12:00pm 13.5 6.4 9.4 76 2.1 WSW 37 50 20 27 1005.7 1005.7 1.0
23/11:30am 13.0 7.1 10.4 84 1.3 WSW 32 41 17 22 1005.7 1005.7 1.0
23/11:00am 12.3 6.3 10.0 86 1.2 WSW 32 43 17 23 1005.6 1005.6 0.6
23/10:30am 12.7 7.8 11.3 91 0.7 WSW 28 43 15 23 1005.6 1005.6 0.6
23/10:00am 11.3 5.6 9.7 90 0.8 WSW 30 43 16 23 1005.4 1005.4 0.6
23/09:44am 11.1 4.8 8.8 86 1.1 WSW 32 52 17 28 1005.3 1005.3 0.2
23/09:30am 12.1 5.9 10.0 87 1.1 WSW 33 44 18 24 1005.1 1005.1 0.0
23/09:00am 10.7 4.5 9.5 92 0.6 WSW 32 43 17 23 1005.0 1005.0 7.0
23/08:30am 10.3 4.4 9.1 92 0.6 WSW 30 43 16 23 1004.8 1004.8 7.0
23/08:00am 10.6 4.3 8.9 89 0.8 WSW 32 48 17 26 1004.5 1004.5 6.8
23/07:30am 9.9 3.9 8.7 92 0.6 WSW 30 41 16 22 1004.2 1004.2 6.8
23/07:00am 9.3 2.8 8.2 93 0.5 W 32 43 17 23 1004.0 1004.0 6.8
23/06:30am 8.8 3.3 7.7 93 0.5 WSW 26 35 14 19 1003.8 1003.8 6.8
23/06:00am 8.8 3.0 7.9 94 0.4 WSW 28 41 15 22 1003.6 1003.6 6.6
23/05:30am 8.9 2.3 7.7 92 0.6 WSW 32 41 17 22 1003.4 1003.4 6.4
23/05:00am 9.0 3.1 7.3 89 0.8 WSW 28 33 15 18 1003.2 1003.2 6.2
23/04:30am 9.1 4.0 7.5 90 0.8 W 24 32 13 17 1003.0 1003.0 6.0
23/04:00am 8.9 3.6 6.9 87 0.9 W 24 32 13 17 1002.8 1002.8 6.0
23/03:30am 8.9 3.6 6.7 86 1.0 W 24 35 13 19 1002.7 1002.7 6.0
23/03:00am 8.8 4.2 6.6 86 1.0 W 20 30 11 16 1002.8 1002.8 6.0
23/02:30am 9.0 3.6 6.4 84 1.2 WSW 24 35 13 19 1002.7 1002.7 6.0
23/02:00am 9.5 4.2 6.8 83 1.3 WSW 24 35 13 19 1002.9 1002.9 6.0
23/01:30am 9.6 4.3 7.0 84 1.2 WSW 24 32 13 17 1002.9 1002.9 6.0
23/01:00am 9.3 4.5 7.4 88 0.9 W 22 28 12 15 1002.9 1002.9 6.0
23/12:30am 9.4 3.4 7.0 85 1.1 W 28 41 15 22 1002.7 1002.7 6.0
23/12:00am 9.6 2.9 7.2 85 1.1 W 32 44 17 24 1002.7 1002.7 6.0
 
Date/Time
EST
Temp
°C
App
Temp
°C
Dew
Point
°C
Rel
Hum
%
Delta-T
°C
Wind Press
QNH
hPa
Press
MSL
hPa
Rain since
9am
mm
Dir  Spd
km/h
Gust
km/h
Spd
kts
Gust
kts
22/11:30pm 9.7 4.3 8.0 89 0.8 W 26 35 14 19 1002.7 1002.7 6.0
22/11:00pm 9.7 3.6 8.1 90 0.8 W 30 43 16 23 1002.6 1002.6 6.0
22/10:30pm 10.0 5.0 7.9 87 1.0 WSW 24 35 13 19 1002.6 1002.6 5.8
22/10:00pm 10.3 4.2 8.2 87 1.0 W 30 39 16 21 1002.3 1002.3 5.6
22/09:30pm 10.2 4.9 8.5 89 0.8 WSW 26 35 14 19 1002.1 1002.1 5.6
22/09:00pm 10.1 5.3 8.9 92 0.6 W 24 35 13 19 1001.9 1001.9 5.6
22/08:30pm 10.5 5.3 8.9 90 0.8 W 26 39 14 21 1001.7 1001.7 5.6
22/08:00pm 10.6 4.8 9.4 92 0.6 W 30 39 16 21 1001.3 1001.3 5.6
22/07:30pm 10.9 5.5 9.5 91 0.7 W 28 41 15 22 1000.8 1000.8 5.4
22/07:00pm 10.6 6.3 9.2 91 0.7 W 22 33 12 18 1000.4 1000.4 5.4
22/06:30pm 10.7 6.3 8.8 88 0.9 W 22 30 12 16 999.8 999.8 5.4
22/06:00pm 10.4 7.0 9.3 93 0.6 W 17 20 9 11 999.6 999.6 5.2
22/05:30pm 10.6 5.9 9.4 92 0.6 W 24 32 13 17 998.9 998.9 5.2
22/05:00pm 10.9 6.6 9.5 91 0.7 W 22 32 12 17 998.3 998.3 5.0
22/04:30pm 11.5 7.9 9.8 89 0.9 W 19 24 10 13 997.9 997.9 4.8
22/04:00pm 11.4 7.6 9.8 90 0.8 W 20 32 11 17 997.5 997.5 4.8
22/03:30pm 11.0 7.2 9.9 93 0.6 WNW 20 32 11 17 997.6 997.6 4.6
22/03:00pm 10.4 5.4 9.5 94 0.5 WNW 26 41 14 22 998.0 998.0 4.2
22/02:30pm 11.3 5.2 9.9 91 0.7 NW 32 41 17 22 997.9 997.9 3.2
22/02:07pm 12.7 7.0 9.9 83 1.4 NW 30 48 16 26 997.9 997.9 2.6
22/02:00pm 13.4 8.9 11.3 87 1.1 WNW 26 41 14 22 998.0 998.0 2.6
22/01:30pm 12.3 3.7 8.8 79 1.7 NW 44 69 24 37 998.1 998.1 2.2
22/01:00pm 12.6 3.8 9.4 81 1.6 NW 46 65 25 35 998.2 998.2 2.2
22/12:35pm 14.0 5.9 10.0 77 2.1 NW 43 65 23 35 998.2 998.2 2.2
22/12:30pm 14.5 6.5 10.3 76 2.2 NW 43 57 23 31 998.2 998.2 2.2
22/12:02pm 12.9 4.9 10.3 84 1.3 NW 43 61 23 33 998.7 998.7 2.2
22/12:00pm 12.8 4.5 10.0 83 1.4 NW 44 61 24 33 998.7 998.7 2.2
22/11:35am 13.2 6.3 10.4 83 1.5 NW 37 57 20 31 998.4 998.4 2.2
22/11:30am 13.1 6.3 10.6 85 1.3 NW 37 52 20 28 998.5 998.5 2.2
22/11:00am 12.1 6.4 11.3 95 0.4 NW 32 41 17 22 998.6 998.6 2.2
22/10:38am 11.7 5.2 10.3 91 0.7 WNW 35 59 19 32 998.6 998.6 2.0
22/10:30am 11.9 6.6 11.1 95 0.4 WNW 30 39 16 21 998.7 998.7 1.8
22/10:00am 12.4 5.6 10.8 90 0.8 NW 37 56 20 30 998.6 998.6 0.4
22/09:32am 11.5 5.4 10.4 93 0.6 WNW 33 52 18 28 998.8 998.8 0.4
22/09:30am 11.4 4.4 10.0 91 0.7 NW 37 52 20 28 998.8 998.8 0.4
22/09:04am 12.5 5.5 10.0 85 1.3 NW 37 56 20 30 998.7 998.7 0.0
22/09:00am 12.5 5.7 10.7 89 0.9 NW 37 48 20 26 998.8 998.8 10.2
22/08:30am 12.0 6.8 10.1 88 1.0 NW 28 39 15 21 998.8 998.8 10.2
22/08:00am 10.8 5.8 9.7 93 0.6 NW 26 37 14 20 998.7 998.7 10.2
22/07:30am 11.2 6.7 10.1 93 0.6 NW 24 54 13 29 998.7 998.7 9.6
22/07:00am 11.4 6.5 10.0 91 0.7 NW 26 33 14 18 998.5 998.5 7.6
22/06:30am 10.6 6.8 9.8 95 0.4 WNW 20 30 11 16 998.5 998.5 7.6
22/06:01am 10.7 3.9 9.3 91 0.7 NW 35 57 19 31 998.5 998.5 7.0
22/06:00am 10.8 4.5 9.6 92 0.6 NW 33 46 18 25 998.6 998.6 7.0
22/05:30am 10.4 4.2 9.5 94 0.4 WNW 32 44 17 24 998.3 998.3 6.8
22/05:18am 10.2 4.7 9.1 93 0.5 WNW 28 52 15 28 998.3 998.3 6.0
22/05:00am 10.0 4.4 8.9 93 0.5 WNW 28 43 15 23 998.2 998.2 3.4
22/04:30am 11.2 7.3 9.6 90 0.8 NW 20 30 11 16 998.1 998.1 2.2
22/04:00am 11.0 5.5 9.1 88 1.0 NW 28 39 15 21 998.3 998.3 1.6
22/03:30am 11.5 7.3 9.8 89 0.9 NNW 22 32 12 17 998.3 998.3 1.0
22/03:00am 11.9 7.3 9.5 85 1.2 NW 24 33 13 18 998.5 998.5 1.0
22/02:30am 12.1 6.7 9.5 84 1.3 NNW 28 37 15 20 998.8 998.8 1.0
22/02:00am 12.2 7.2 9.4 83 1.4 NNW 26 35 14 19 999.0 999.0 1.0
22/01:30am 12.3 7.1 9.0 80 1.7 NNW 26 33 14 18 999.3 999.3 1.0
22/01:00am 12.1 8.2 9.5 84 1.3 NNW 20 24 11 13 999.6 999.6 1.0
22/12:30am 12.2 7.8 8.9 80 1.6 NW 22 32 12 17 999.6 999.6 1.0
22/12:00am 11.8 8.3 8.8 82 1.5 NNW 17 20 9 11 999.7 999.7 1.0
 
Date/Time
EST
Temp
°C
App
Temp
°C
Dew
Point
°C
Rel
Hum
%
Delta-T
°C
Wind Press
QNH
hPa
Press
MSL
hPa
Rain since
9am
mm
Dir  Spd
km/h
Gust
km/h
Spd
kts
Gust
kts
21/11:30pm 11.5 7.9 8.4 81 1.5 NNW 17 22 9 12 999.9 999.9 1.0
21/11:00pm 11.9 8.0 8.6 80 1.6 NW 19 24 10 13 1000.1 1000.1 1.0
21/10:30pm 12.3 9.3 9.3 82 1.5 NW 15 20 8 11 1000.2 1000.2 1.0

Other formats

Comma delimited format used in spreadsheet applications
http://www.bom.gov.au/fwo/IDT60801/IDT60801.94953.axf

JavaScript Object Notation format (JSON) in row-major order
http://www.bom.gov.au/fwo/IDT60801/IDT60801.94953.json

Data quality

Most of these data are generated automatically and are frequently updated. Quality checks on data are not normally performed. It is possible for incorrect values to appear. Refer to information at About Latest Weather Observations and please check the disclaimer before using these data.